KSTK/STK METAR and TAF weather

Enter ICAO airport designator
Station Type Date Time Source
KSTK METAR 2020/01/24 03:20 UTC NOAA

KSTK 240320Z AUTO 33010KT 10SM CLR M02/M10 A3008 RMK AO2


Station Type Date Time Source
KSTK Decoded METAR 2020/01/24 03:20 UTC NOAA

Station name not available
Jan 23, 2020 - 10:20 PM EST / 2020.01.24 0320 UTC
Wind: from the NNW (330 degrees) at 12 MPH (10 KT):0
Visibility: 10 mile(s):0
Sky conditions: clear
Temperature: 28 F (-2 C)
Windchill: 17 F (-8 C):1
Dew Point: 14 F (-10 C)
Relative Humidity: 54%
Pressure (altimeter): 30.08 in. Hg (1018 hPa)
ob: KSTK 240320Z AUTO 33010KT 10SM CLR M02/M10 A3008 RMK AO2
cycle: 3

Station Type Date Time Source
KSTK TAF UTC NOAA

Error!

Example: see airport list